sensor_id;sensor_type;location;lat;lon;timestamp;pressure;altitude;pressure_sealevel;temperature;humidity
12146;BME280;6136;47.032;15.398;2022-12-19T00:01:56;99454.94;;;-1.50;100.00
12146;BME280;6136;47.032;15.398;2022-12-19T00:04:26;99461.00;;;-1.48;100.00
12146;BME280;6136;47.032;15.398;2022-12-19T00:06:56;99455.75;;;-1.52;100.00
12146;BME280;6136;47.032;15.398;2022-12-19T00:09:25;99449.66;;;-1.54;100.00
12146;BME280;6136;47.032;15.398;2022-12-19T00:11:54;99438.53;;;-1.46;100.00
12146;BME280;6136;47.032;15.398;2022-12-19T00:14:22;99454.19;;;-1.43;100.00
12146;BME280;6136;47.032;15.398;2022-12-19T00:16:50;99444.66;;;-1.42;100.00
12146;BME280;6136;47.032;15.398;2022-12-19T00:19:18;99434.13;;;-1.51;100.00
12146;BME280;6136;47.032;15.398;2022-12-19T00:21:48;99442.88;;;-1.45;100.00
12146;BME280;6136;47.032;15.398;2022-12-19T00:24:16;99451.59;;;-1.43;100.00
12146;BME280;6136;47.032;15.398;2022-12-19T00:26:47;99451.53;;;-1.46;100.00
12146;BME280;6136;47.032;15.398;2022-12-19T00:29:15;99461.06;;;-1.45;100.00
12146;BME280;6136;47.032;15.398;2022-12-19T00:31:44;99442.75;;;-1.52;100.00
12146;BME280;6136;47.032;15.398;2022-12-19T00:34:13;99461.88;;;-1.50;100.00
12146;BME280;6136;47.032;15.398;2022-12-19T00:36:42;99455.81;;;-1.49;100.00
12146;BME280;6136;47.032;15.398;2022-12-19T00:39:26;99456.56;;;-1.57;100.00
12146;BME280;6136;47.032;15.398;2022-12-19T00:41:58;99474.94;;;-1.46;100.00
12146;BME280;6136;47.032;15.398;2022-12-19T00:44:26;99463.69;;;-1.45;100.00
12146;BME280;6136;47.032;15.398;2022-12-19T00:46:54;99462.78;;;-1.47;100.00
12146;BME280;6136;47.032;15.398;2022-12-19T00:49:22;99459.41;;;-1.40;100.00
12146;BME280;6136;47.032;15.398;2022-12-19T00:51:51;99461.00;;;-1.48;100.00
12146;BME280;6136;47.032;15.398;2022-12-19T00:54:20;99469.88;;;-1.37;100.00
12146;BME280;6136;47.032;15.398;2022-12-19T00:56:51;99465.56;;;-1.36;100.00
12146;BME280;6136;47.032;15.398;2022-12-19T00:59:21;99467.25;;;-1.38;100.00
12146;BME280;6136;47.032;15.398;2022-12-19T01:01:55;99460.19;;;-1.45;100.00
12146;BME280;6136;47.032;15.398;2022-12-19T01:04:23;99444.78;;;-1.35;100.00
12146;BME280;6136;47.032;15.398;2022-12-19T01:06:54;99435.13;;;-1.40;100.00
12146;BME280;6136;47.032;15.398;2022-12-19T01:09:30;99449.16;;;-1.31;100.00
12146;BME280;6136;47.032;15.398;2022-12-19T01:12:00;99412.50;;;-1.49;100.00
12146;BME280;6136;47.032;15.398;2022-12-19T01:14:51;99419.41;;;-1.48;100.00
12146;BME280;6136;47.032;15.398;2022-12-19T01:17:24;99449.03;;;-1.38;100.00
12146;BME280;6136;47.032;15.398;2022-12-19T01:19:52;99448.19;;;-1.37;100.00
12146;BME280;6136;47.032;15.398;2022-12-19T01:22:20;99442.19;;;-1.35;100.00
12146;BME280;6136;47.032;15.398;2022-12-19T01:24:48;99434.44;;;-1.30;100.00
12146;BME280;6136;47.032;15.398;2022-12-19T01:27:18;99429.16;;;-1.36;100.00
12146;BME280;6136;47.032;15.398;2022-12-19T01:29:46;99445.69;;;-1.31;100.00
12146;BME280;6136;47.032;15.398;2022-12-19T01:32:19;99447.28;;;-1.39;100.00
12146;BME280;6136;47.032;15.398;2022-12-19T01:34:47;99440.28;;;-1.45;100.00
12146;BME280;6136;47.032;15.398;2022-12-19T01:37:15;99456.06;;;-1.33;100.00
12146;BME280;6136;47.032;15.398;2022-12-19T01:39:43;99433.47;;;-1.37;100.00
12146;BME280;6136;47.032;15.398;2022-12-19T01:42:14;99422.06;;;-1.45;100.00
12146;BME280;6136;47.032;15.398;2022-12-19T01:45:04;99386.28;;;-1.61;100.00
12146;BME280;6136;47.032;15.398;2022-12-19T01:47:49;99407.94;;;-1.64;100.00
12146;BME280;6136;47.032;15.398;2022-12-19T01:50:23;99387.91;;;-1.69;100.00
12146;BME280;6136;47.032;15.398;2022-12-19T01:52:54;99389.56;;;-1.74;100.00
12146;BME280;6136;47.032;15.398;2022-12-19T01:55:24;99363.44;;;-1.83;100.00
12146;BME280;6136;47.032;15.398;2022-12-19T01:57:53;99371.31;;;-1.79;100.00
12146;BME280;6136;47.032;15.398;2022-12-19T02:00:23;99386.22;;;-1.67;100.00
12146;BME280;6136;47.032;15.398;2022-12-19T02:02:54;99370.53;;;-1.73;100.00
12146;BME280;6136;47.032;15.398;2022-12-19T02:05:25;99381.13;;;-1.60;100.00
12146;BME280;6136;47.032;15.398;2022-12-19T02:07:53;99393.34;;;-1.54;100.00
12146;BME280;6136;47.032;15.398;2022-12-19T02:10:21;99388.22;;;-1.48;100.00
12146;BME280;6136;47.032;15.398;2022-12-19T02:12:50;99385.53;;;-1.54;100.00
12146;BME280;6136;47.032;15.398;2022-12-19T02:15:19;99381.19;;;-1.55;100.00
12146;BME280;6136;47.032;15.398;2022-12-19T02:17:59;99376.84;;;-1.58;100.00
12146;BME280;6136;47.032;15.398;2022-12-19T02:21:02;99404.59;;;-1.53;100.00
12146;BME280;6136;47.032;15.398;2022-12-19T02:24:02;99400.25;;;-1.56;100.00
12146;BME280;6136;47.032;15.398;2022-12-19T02:26:48;99393.38;;;-1.51;100.00
12146;BME280;6136;47.032;15.398;2022-12-19T02:32:20;99371.69;;;-1.53;100.00
12146;BME280;6136;47.032;15.398;2022-12-19T02:34:57;99371.69;;;-1.53;100.00
12146;BME280;6136;47.032;15.398;2022-12-19T02:37:31;99372.63;;;-1.48;100.00
12146;BME280;6136;47.032;15.398;2022-12-19T02:40:09;99356.81;;;-1.63;100.00
12146;BME280;6136;47.032;15.398;2022-12-19T02:42:43;99384.75;;;-1.50;100.00
12146;BME280;6136;47.032;15.398;2022-12-19T02:45:15;99377.81;;;-1.48;100.00
12146;BME280;6136;47.032;15.398;2022-12-19T02:47:56;99355.91;;;-1.67;100.00
12146;BME280;6136;47.032;15.398;2022-12-19T02:50:36;99376.84;;;-1.54;100.00
12146;BME280;6136;47.032;15.398;2022-12-19T02:53:05;99370.91;;;-1.49;100.00
12146;BME280;6136;47.032;15.398;2022-12-19T02:55:39;99357.78;;;-1.55;100.00
12146;BME280;6136;47.032;15.398;2022-12-19T02:58:29;99351.72;;;-1.57;100.00
12146;BME280;6136;47.032;15.398;2022-12-19T03:01:08;99360.38;;;-1.55;100.00
12146;BME280;6136;47.032;15.398;2022-12-19T03:03:46;99359.50;;;-1.59;100.00
12146;BME280;6136;47.032;15.398;2022-12-19T03:06:23;99356.88;;;-1.59;100.00
12146;BME280;6136;47.032;15.398;2022-12-19T03:08:57;99365.50;;;-1.61;100.00
12146;BME280;6136;47.032;15.398;2022-12-19T03:11:30;99356.91;;;-1.56;100.00
12146;BME280;6136;47.032;15.398;2022-12-19T03:14:03;99345.59;;;-1.61;100.00
12146;BME280;6136;47.032;15.398;2022-12-19T03:16:33;99351.63;;;-1.63;100.00
12146;BME280;6136;47.032;15.398;2022-12-19T03:19:07;99350.00;;;-1.55;100.00
12146;BME280;6136;47.032;15.398;2022-12-19T03:21:39;99330.72;;;-1.71;100.00
12146;BME280;6136;47.032;15.398;2022-12-19T03:24:09;99340.25;;;-1.71;100.00
12146;BME280;6136;47.032;15.398;2022-12-19T03:26:42;99342.69;;;-1.80;100.00
12146;BME280;6136;47.032;15.398;2022-12-19T03:29:14;99353.00;;;-1.86;100.00
12146;BME280;6136;47.032;15.398;2022-12-19T03:31:46;99348.72;;;-1.83;100.00
12146;BME280;6136;47.032;15.398;2022-12-19T03:34:17;99338.06;;;-2.01;100.00
12146;BME280;6136;47.032;15.398;2022-12-19T03:36:50;99362.44;;;-1.93;100.00
12146;BME280;6136;47.032;15.398;2022-12-19T03:39:21;99347.59;;;-1.99;100.00
12146;BME280;6136;47.032;15.398;2022-12-19T03:41:50;99351.06;;;-1.98;100.00
12146;BME280;6136;47.032;15.398;2022-12-19T03:44:38;99342.41;;;-1.99;100.00
12146;BME280;6136;47.032;15.398;2022-12-19T03:47:13;99346.00;;;-1.90;100.00
12146;BME280;6136;47.032;15.398;2022-12-19T03:49:44;99346.06;;;-1.87;100.00
12146;BME280;6136;47.032;15.398;2022-12-19T03:52:22;99339.09;;;-1.88;100.00
12146;BME280;6136;47.032;15.398;2022-12-19T03:55:00;99338.38;;;-1.80;100.00
12146;BME280;6136;47.032;15.398;2022-12-19T03:57:34;99325.34;;;-1.81;100.00
12146;BME280;6136;47.032;15.398;2022-12-19T04:00:08;99334.16;;;-1.73;100.00
12146;BME280;6136;47.032;15.398;2022-12-19T04:02:41;99339.16;;;-1.85;100.00
12146;BME280;6136;47.032;15.398;2022-12-19T04:05:16;99351.28;;;-1.84;100.00
12146;BME280;6136;47.032;15.398;2022-12-19T04:07:46;99349.59;;;-1.82;100.00
12146;BME280;6136;47.032;15.398;2022-12-19T04:10:17;99346.19;;;-1.80;100.00
12146;BME280;6136;47.032;15.398;2022-12-19T04:12:49;99346.22;;;-1.78;100.00
12146;BME280;6136;47.032;15.398;2022-12-19T04:15:20;99327.03;;;-1.86;100.00
12146;BME280;6136;47.032;15.398;2022-12-19T04:17:56;99337.53;;;-1.77;100.00
12146;BME280;6136;47.032;15.398;2022-12-19T04:20:27;99335.91;;;-1.72;100.00
12146;BME280;6136;47.032;15.398;2022-12-19T04:23:01;99341.97;;;-1.72;100.00
12146;BME280;6136;47.032;15.398;2022-12-19T04:25:35;99346.31;;;-1.71;100.00
12146;BME280;6136;47.032;15.398;2022-12-19T04:28:08;99325.28;;;-1.87;100.00
12146;BME280;6136;47.032;15.398;2022-12-19T04:30:40;99326.25;;;-1.78;100.00
12146;BME280;6136;47.032;15.398;2022-12-19T04:33:10;99326.38;;;-1.72;100.00
12146;BME280;6136;47.032;15.398;2022-12-19T04:35:40;99311.50;;;-1.82;100.00
12146;BME280;6136;47.032;15.398;2022-12-19T04:38:08;99318.41;;;-1.82;100.00
12146;BME280;6136;47.032;15.398;2022-12-19T04:40:36;99324.69;;;-1.68;100.00
12146;BME280;6136;47.032;15.398;2022-12-19T04:43:07;99313.28;;;-1.76;100.00
12146;BME280;6136;47.032;15.398;2022-12-19T04:45:36;99321.19;;;-1.72;100.00
12146;BME280;6136;47.032;15.398;2022-12-19T04:48:04;99326.34;;;-1.73;100.00
12146;BME280;6136;47.032;15.398;2022-12-19T04:50:34;99318.56;;;-1.73;100.00
12146;BME280;6136;47.032;15.398;2022-12-19T04:53:04;99312.53;;;-1.69;100.00
12146;BME280;6136;47.032;15.398;2022-12-19T04:55:33;99309.00;;;-1.74;100.00
12146;BME280;6136;47.032;15.398;2022-12-19T04:58:03;99316.03;;;-1.67;100.00
12146;BME280;6136;47.032;15.398;2022-12-19T05:00:32;99311.75;;;-1.65;100.00
12146;BME280;6136;47.032;15.398;2022-12-19T05:03:00;99305.72;;;-1.61;100.00
12146;BME280;6136;47.032;15.398;2022-12-19T05:05:29;99313.50;;;-1.64;100.00
12146;BME280;6136;47.032;15.398;2022-12-19T05:07:57;99312.63;;;-1.65;100.00
12146;BME280;6136;47.032;15.398;2022-12-19T05:10:27;99309.13;;;-1.67;100.00
12146;BME280;6136;47.032;15.398;2022-12-19T05:12:55;99313.44;;;-1.67;100.00
12146;BME280;6136;47.032;15.398;2022-12-19T05:15:23;99312.63;;;-1.65;100.00
12146;BME280;6136;47.032;15.398;2022-12-19T05:17:51;99317.81;;;-1.65;100.00
12146;BME280;6136;47.032;15.398;2022-12-19T05:20:19;99298.66;;;-1.70;100.00
12146;BME280;6136;47.032;15.398;2022-12-19T05:22:48;99315.19;;;-1.66;100.00
12146;BME280;6136;47.032;15.398;2022-12-19T05:25:16;99319.44;;;-1.70;100.00
12146;BME280;6136;47.032;15.398;2022-12-19T05:27:46;99301.13;;;-1.80;100.00
12146;BME280;6136;47.032;15.398;2022-12-19T05:30:14;99320.31;;;-1.69;100.00
12146;BME280;6136;47.032;15.398;2022-12-19T05:32:42;99304.56;;;-1.81;100.00
12146;BME280;6136;47.032;15.398;2022-12-19T05:35:10;99307.09;;;-1.84;100.00
12146;BME280;6136;47.032;15.398;2022-12-19T05:37:38;99305.44;;;-1.81;100.00
12146;BME280;6136;47.032;15.398;2022-12-19T05:40:08;99305.69;;;-1.64;100.00
12146;BME280;6136;47.032;15.398;2022-12-19T05:42:36;99301.22;;;-1.74;100.00
12146;BME280;6136;47.032;15.398;2022-12-19T05:45:07;99281.16;;;-1.83;100.00
12146;BME280;6136;47.032;15.398;2022-12-19T05:47:35;99297.69;;;-1.76;100.00
12146;BME280;6136;47.032;15.398;2022-12-19T05:50:04;99301.13;;;-1.80;100.00
12146;BME280;6136;47.032;15.398;2022-12-19T05:52:32;99290.66;;;-1.86;100.00
12146;BME280;6136;47.032;15.398;2022-12-19T05:55:01;99309.84;;;-1.75;100.00
12146;BME280;6136;47.032;15.398;2022-12-19T05:57:29;99313.28;;;-1.79;100.00
12146;BME280;6136;47.032;15.398;2022-12-19T05:59:57;99319.31;;;-1.80;100.00
12146;BME280;6136;47.032;15.398;2022-12-19T06:02:30;99312.41;;;-1.78;100.00
12146;BME280;6136;47.032;15.398;2022-12-19T06:04:59;99330.63;;;-1.75;100.00
12146;BME280;6136;47.032;15.398;2022-12-19T06:07:27;99324.50;;;-1.80;100.00
12146;BME280;6136;47.032;15.398;2022-12-19T06:09:56;99321.91;;;-1.80;100.00
12146;BME280;6136;47.032;15.398;2022-12-19T06:12:25;99327.09;;;-1.80;100.00
12146;BME280;6136;47.032;15.398;2022-12-19T06:14:53;99329.63;;;-1.85;100.00
12146;BME280;6136;47.032;15.398;2022-12-19T06:17:21;99342.69;;;-1.80;100.00
12146;BME280;6136;47.032;15.398;2022-12-19T06:19:51;99330.59;;;-1.80;100.00
12146;BME280;6136;47.032;15.398;2022-12-19T06:22:19;99338.47;;;-1.74;100.00
12146;BME280;6136;47.032;15.398;2022-12-19T06:24:47;99318.38;;;-1.85;100.00
12146;BME280;6136;47.032;15.398;2022-12-19T06:27:16;99327.28;;;-1.68;100.00
12146;BME280;6136;47.032;15.398;2022-12-19T06:29:44;99325.44;;;-1.75;100.00
12146;BME280;6136;47.032;15.398;2022-12-19T06:32:12;99323.56;;;-1.85;100.00
12146;BME280;6136;47.032;15.398;2022-12-19T06:34:40;99320.84;;;-1.91;100.00
12146;BME280;6136;47.032;15.398;2022-12-19T06:37:30;99324.53;;;-1.77;100.00
12146;BME280;6136;47.032;15.398;2022-12-19T06:39:58;99323.69;;;-1.76;100.00
12146;BME280;6136;47.032;15.398;2022-12-19T06:42:26;99331.47;;;-1.78;100.00
12146;BME280;6136;47.032;15.398;2022-12-19T06:44:54;99320.06;;;-1.87;100.00
12146;BME280;6136;47.032;15.398;2022-12-19T06:47:23;99320.91;;;-1.88;100.00
12146;BME280;6136;47.032;15.398;2022-12-19T06:49:52;99327.75;;;-1.95;100.00
12146;BME280;6136;47.032;15.398;2022-12-19T06:52:20;99336.44;;;-1.93;100.00
12146;BME280;6136;47.032;15.398;2022-12-19T06:54:49;99321.69;;;-1.96;100.00
12146;BME280;6136;47.032;15.398;2022-12-19T06:57:18;99337.53;;;-1.77;100.00
12146;BME280;6136;47.032;15.398;2022-12-19T06:59:46;99337.53;;;-1.77;100.00
12146;BME280;6136;47.032;15.398;2022-12-19T07:02:23;99330.63;;;-1.78;100.00
12146;BME280;6136;47.032;15.398;2022-12-19T07:04:56;99341.09;;;-1.72;100.00
12146;BME280;6136;47.032;15.398;2022-12-19T07:07:27;99333.44;;;-1.62;100.00
12146;BME280;6136;47.032;15.398;2022-12-19T07:09:57;99337.75;;;-1.62;100.00
12146;BME280;6136;47.032;15.398;2022-12-19T07:12:25;99331.72;;;-1.61;100.00
12146;BME280;6136;47.032;15.398;2022-12-19T07:14:53;99333.56;;;-1.52;100.00
12146;BME280;6136;47.032;15.398;2022-12-19T07:17:22;99342.31;;;-1.49;100.00
12146;BME280;6136;47.032;15.398;2022-12-19T07:19:52;99330.88;;;-1.60;100.00
12146;BME280;6136;47.032;15.398;2022-12-19T07:22:21;99337.19;;;-1.40;100.00
12146;BME280;6136;47.032;15.398;2022-12-19T07:24:50;99344.25;;;-1.34;100.00
12146;BME280;6136;47.032;15.398;2022-12-19T07:27:20;99339.03;;;-1.33;100.00
12146;BME280;6136;47.032;15.398;2022-12-19T07:29:49;99347.72;;;-1.34;100.00
12146;BME280;6136;47.032;15.398;2022-12-19T07:32:17;99346.06;;;-1.27;100.00
12146;BME280;6136;47.032;15.398;2022-12-19T07:34:45;99359.13;;;-1.23;100.00
12146;BME280;6136;47.032;15.398;2022-12-19T07:37:13;99354.00;;;-1.17;100.00
12146;BME280;6136;47.032;15.398;2022-12-19T07:39:41;99353.25;;;-1.06;100.00
12146;BME280;6136;47.032;15.398;2022-12-19T07:42:10;99361.22;;;-0.93;100.00
12146;BME280;6136;47.032;15.398;2022-12-19T07:44:39;99356.06;;;-0.88;100.00
12146;BME280;6136;47.032;15.398;2022-12-19T07:47:07;99357.09;;;-0.77;100.00
12146;BME280;6136;47.032;15.398;2022-12-19T07:49:35;99361.56;;;-0.64;100.00
12146;BME280;6136;47.032;15.398;2022-12-19T07:52:03;99356.47;;;-0.52;100.00
12146;BME280;6136;47.032;15.398;2022-12-19T07:54:31;99366.19;;;-0.35;100.00
12146;BME280;6136;47.032;15.398;2022-12-19T07:57:00;99365.31;;;-0.39;100.00
12146;BME280;6136;47.032;15.398;2022-12-19T07:59:29;99366.41;;;-0.14;100.00
12146;BME280;6136;47.032;15.398;2022-12-19T08:02:06;99348.03;;;-0.28;100.00
12146;BME280;6136;47.032;15.398;2022-12-19T08:04:34;99362.00;;;-0.20;100.00
12146;BME280;6136;47.032;15.398;2022-12-19T08:07:02;99361.88;;;-0.33;100.00
12146;BME280;6136;47.032;15.398;2022-12-19T08:09:30;99364.59;;;-0.23;100.00
12146;BME280;6136;47.032;15.398;2022-12-19T08:11:58;99372.34;;;-0.27;100.00
12146;BME280;6136;47.032;15.398;2022-12-19T08:14:27;99365.34;;;-0.34;100.00
12146;BME280;6136;47.032;15.398;2022-12-19T08:16:55;99374.00;;;-0.35;100.00
12146;BME280;6136;47.032;15.398;2022-12-19T08:19:44;99370.53;;;-0.36;100.00
12146;BME280;6136;47.032;15.398;2022-12-19T08:22:12;99352.97;;;-0.55;100.00
12146;BME280;6136;47.032;15.398;2022-12-19T08:24:40;99359.91;;;-0.56;100.00
12146;BME280;6136;47.032;15.398;2022-12-19T08:27:09;99359.16;;;-0.46;100.00
12146;BME280;6136;47.032;15.398;2022-12-19T08:29:37;99368.72;;;-0.45;100.00
12146;BME280;6136;47.032;15.398;2022-12-19T08:32:06;99373.19;;;-0.33;100.00
12146;BME280;6136;47.032;15.398;2022-12-19T08:34:34;99367.13;;;-0.30;100.00
12146;BME280;6136;47.032;15.398;2022-12-19T08:37:03;99372.44;;;-0.18;100.00
12146;BME280;6136;47.032;15.398;2022-12-19T08:39:31;99375.97;;;-0.13;100.00
12146;BME280;6136;47.032;15.398;2022-12-19T08:41:59;99372.44;;;-0.18;100.00
12146;BME280;6136;47.032;15.398;2022-12-19T08:44:28;99360.38;;;-0.10;100.00
12146;BME280;6136;47.032;15.398;2022-12-19T08:46:56;99369.97;;;-0.05;100.00
12146;BME280;6136;47.032;15.398;2022-12-19T08:49:24;99358.63;;;-0.11;100.00
12146;BME280;6136;47.032;15.398;2022-12-19T08:51:52;99365.59;;;-0.10;100.00
12146;BME280;6136;47.032;15.398;2022-12-19T08:54:22;99374.28;;;-0.10;100.00
12146;BME280;6136;47.032;15.398;2022-12-19T08:56:50;99375.06;;;-0.18;100.00
12146;BME280;6136;47.032;15.398;2022-12-19T08:59:18;99371.53;;;-0.25;100.00
12146;BME280;6136;47.032;15.398;2022-12-19T09:01:57;99371.56;;;-0.20;100.00
12146;BME280;6136;47.032;15.398;2022-12-19T09:04:27;99370.75;;;-0.16;100.00
12146;BME280;6136;47.032;15.398;2022-12-19T09:07:15;99380.28;;;-0.14;100.00
12146;BME280;6136;47.032;15.398;2022-12-19T09:09:44;99381.16;;;-0.15;100.00
12146;BME280;6136;47.032;15.398;2022-12-19T09:12:13;99380.28;;;-0.14;100.00
12146;BME280;6136;47.032;15.398;2022-12-19T09:14:42;99377.75;;;-0.09;100.00
12146;BME280;6136;47.032;15.398;2022-12-19T09:17:11;99376.09;;;0.02;100.00
12146;BME280;6136;47.032;15.398;2022-12-19T09:19:39;99369.13;;;0.01;100.00
12146;BME280;6136;47.032;15.398;2022-12-19T09:22:13;99369.19;;;0.04;100.00
12146;BME280;6136;47.032;15.398;2022-12-19T09:24:41;99376.97;;;-0.01;100.00
12146;BME280;6136;47.032;15.398;2022-12-19T09:27:10;99367.47;;;0.09;100.00
12146;BME280;6136;47.032;15.398;2022-12-19T09:29:40;99374.59;;;0.28;100.00
12146;BME280;6136;47.032;15.398;2022-12-19T09:32:08;99364.13;;;0.25;100.00
12146;BME280;6136;47.032;15.398;2022-12-19T09:34:37;99363.34;;;0.35;100.00
12146;BME280;6136;47.032;15.398;2022-12-19T09:37:06;99367.66;;;0.32;100.00
12146;BME280;6136;47.032;15.398;2022-12-19T09:39:36;99354.59;;;0.27;100.00
12146;BME280;6136;47.032;15.398;2022-12-19T09:42:21;99369.34;;;0.25;100.00
12146;BME280;6136;47.032;15.398;2022-12-19T09:45:07;99370.25;;;0.27;100.00
12146;BME280;6136;47.032;15.398;2022-12-19T09:47:55;99362.38;;;0.24;100.00
12146;BME280;6136;47.032;15.398;2022-12-19T09:50:38;99374.59;;;0.28;100.00
12146;BME280;6136;47.032;15.398;2022-12-19T09:53:18;99371.91;;;0.19;100.00
12146;BME280;6136;47.032;15.398;2022-12-19T09:55:48;99357.13;;;0.18;100.00
12146;BME280;6136;47.032;15.398;2022-12-19T09:58:29;99352.75;;;0.13;100.00
12146;BME280;6136;47.032;15.398;2022-12-19T10:01:01;99347.59;;;0.22;100.00
12146;BME280;6136;47.032;15.398;2022-12-19T10:03:35;99357.97;;;0.16;100.00
12146;BME280;6136;47.032;15.398;2022-12-19T10:06:13;99347.66;;;0.31;100.00
12146;BME280;6136;47.032;15.398;2022-12-19T10:09:09;99338.06;;;0.25;100.00
12146;BME280;6136;47.032;15.398;2022-12-19T10:12:14;99340.66;;;0.25;100.00
12146;BME280;6136;47.032;15.398;2022-12-19T10:15:14;99334.53;;;0.17;100.00
12146;BME280;6136;47.032;15.398;2022-12-19T10:17:58;99337.00;;;-0.01;100.00
12146;BME280;6136;47.032;15.398;2022-12-19T10:20:34;99344.66;;;-0.19;100.00
12146;BME280;6136;47.032;15.398;2022-12-19T10:23:26;99347.06;;;-0.39;100.00
12146;BME280;6136;47.032;15.398;2022-12-19T10:26:05;99333.19;;;-0.36;100.00
12146;BME280;6136;47.032;15.398;2022-12-19T10:28:52;99339.19;;;-0.47;100.00
12146;BME280;6136;47.032;15.398;2022-12-19T10:31:30;99331.22;;;-0.62;100.00
12146;BME280;6136;47.032;15.398;2022-12-19T10:34:06;99330.38;;;-0.58;100.00
12146;BME280;6136;47.032;15.398;2022-12-19T10:36:45;99323.53;;;-0.50;100.00
12146;BME280;6136;47.032;15.398;2022-12-19T10:39:42;99327.81;;;-0.56;100.00
12146;BME280;6136;47.032;15.398;2022-12-19T10:42:18;99324.41;;;-0.49;100.00
12146;BME280;6136;47.032;15.398;2022-12-19T10:44:52;99318.34;;;-0.47;100.00
12146;BME280;6136;47.032;15.398;2022-12-19T10:47:22;99315.81;;;-0.39;100.00
12146;BME280;6136;47.032;15.398;2022-12-19T10:49:50;99302.06;;;-0.24;100.00
12146;BME280;6136;47.032;15.398;2022-12-19T10:52:45;99300.31;;;-0.25;100.00
12146;BME280;6136;47.032;15.398;2022-12-19T10:55:23;99308.03;;;-0.37;100.00
12146;BME280;6136;47.032;15.398;2022-12-19T10:57:57;99308.91;;;-0.34;100.00
12146;BME280;6136;47.032;15.398;2022-12-19T11:00:25;99302.84;;;-0.34;100.00
12146;BME280;6136;47.032;15.398;2022-12-19T11:03:11;99303.63;;;-0.42;100.00
12146;BME280;6136;47.032;15.398;2022-12-19T11:05:47;99305.34;;;-0.47;100.00
12146;BME280;6136;47.032;15.398;2022-12-19T11:08:25;99296.56;;;-0.56;100.00
12146;BME280;6136;47.032;15.398;2022-12-19T11:10:55;99296.41;;;-0.70;100.00
12146;BME280;6136;47.032;15.398;2022-12-19T11:13:45;99299.06;;;-0.68;100.00
12146;BME280;6136;47.032;15.398;2022-12-19T11:16:35;99293.63;;;-0.88;100.00
12146;BME280;6136;47.032;15.398;2022-12-19T11:19:29;99297.88;;;-0.98;100.00
12146;BME280;6136;47.032;15.398;2022-12-19T11:22:20;99290.03;;;-0.99;100.00
12146;BME280;6136;47.032;15.398;2022-12-19T11:25:14;99284.94;;;-0.87;100.00
12146;BME280;6136;47.032;15.398;2022-12-19T11:28:11;99280.56;;;-0.93;100.00
12146;BME280;6136;47.032;15.398;2022-12-19T11:31:06;99284.06;;;-0.91;100.00
12146;BME280;6136;47.032;15.398;2022-12-19T11:34:02;99283.19;;;-0.91;100.00
12146;BME280;6136;47.032;15.398;2022-12-19T11:36:35;99280.69;;;-0.82;100.00
12146;BME280;6136;47.032;15.398;2022-12-19T11:39:11;99288.47;;;-0.85;100.00
12146;BME280;6136;47.032;15.398;2022-12-19T11:41:48;99290.31;;;-0.75;100.00
12146;BME280;6136;47.032;15.398;2022-12-19T11:44:25;99278.16;;;-0.73;100.00
12146;BME280;6136;47.032;15.398;2022-12-19T11:46:59;99281.56;;;-0.80;100.00
12146;BME280;6136;47.032;15.398;2022-12-19T11:49:35;99281.53;;;-0.83;100.00
12146;BME280;6136;47.032;15.398;2022-12-19T11:52:19;99284.94;;;-0.87;100.00
12146;BME280;6136;47.032;15.398;2022-12-19T11:55:17;99277.81;;;-1.06;100.00
12146;BME280;6136;47.032;15.398;2022-12-19T11:57:47;99273.50;;;-1.06;100.00
12146;BME280;6136;47.032;15.398;2022-12-19T12:00:18;99266.59;;;-1.04;100.00
12146;BME280;6136;47.032;15.398;2022-12-19T12:03:23;99262.22;;;-1.03;100.00
12146;BME280;6136;47.032;15.398;2022-12-19T12:05:56;99263.06;;;-1.07;100.00
12146;BME280;6136;47.032;15.398;2022-12-19T12:08:41;99257.13;;;-0.97;100.00
12146;BME280;6136;47.032;15.398;2022-12-19T12:11:39;99264.06;;;-0.93;100.00
12146;BME280;6136;47.032;15.398;2022-12-19T12:14:37;99256.97;;;-1.09;100.00
12146;BME280;6136;47.032;15.398;2022-12-19T12:17:54;99261.34;;;-1.05;100.00
12146;BME280;6136;47.032;15.398;2022-12-19T12:20:51;99261.41;;;-1.01;100.00
12146;BME280;6136;47.032;15.398;2022-12-19T12:23:58;99258.81;;;-0.96;100.00
12146;BME280;6136;47.032;15.398;2022-12-19T12:26:57;99251.78;;;-1.08;100.00
12146;BME280;6136;47.032;15.398;2022-12-19T12:29:54;99246.59;;;-1.06;100.00
12146;BME280;6136;47.032;15.398;2022-12-19T12:32:58;99238.06;;;-0.93;100.00
12146;BME280;6136;47.032;15.398;2022-12-19T12:35:55;99234.44;;;-1.07;100.00
12146;BME280;6136;47.032;15.398;2022-12-19T12:39:00;99239.66;;;-1.07;100.00
12146;BME280;6136;47.032;15.398;2022-12-19T12:41:38;99228.44;;;-1.00;100.00
12146;BME280;6136;47.032;15.398;2022-12-19T12:44:26;99223.97;;;-1.13;100.00
12146;BME280;6136;47.032;15.398;2022-12-19T12:47:04;99216.19;;;-1.13;100.00
12146;BME280;6136;47.032;15.398;2022-12-19T12:49:38;99213.63;;;-1.07;100.00
12146;BME280;6136;47.032;15.398;2022-12-19T12:52:13;99216.25;;;-1.06;100.00
12146;BME280;6136;47.032;15.398;2022-12-19T12:54:47;99216.31;;;-1.00;100.00
12146;BME280;6136;47.032;15.398;2022-12-19T12:57:32;99224.19;;;-0.92;100.00
12146;BME280;6136;47.032;15.398;2022-12-19T13:00:21;99214.59;;;-0.96;100.00
12146;BME280;6136;47.032;15.398;2022-12-19T13:02:53;99215.50;;;-0.93;100.00
12146;BME280;6136;47.032;15.398;2022-12-19T13:05:35;99219.03;;;-0.86;100.00
12146;BME280;6136;47.032;15.398;2022-12-19T13:08:31;99212.06;;;-0.90;100.00
12146;BME280;6136;47.032;15.398;2022-12-19T13:11:03;99209.41;;;-0.98;100.00
12146;BME280;6136;47.032;15.398;2022-12-19T13:13:51;99214.63;;;-0.93;100.00
12146;BME280;6136;47.032;15.398;2022-12-19T13:16:47;99201.69;;;-0.87;100.00
12146;BME280;6136;47.032;15.398;2022-12-19T13:19:18;99205.13;;;-0.91;100.00
12146;BME280;6136;47.032;15.398;2022-12-19T13:22:19;99199.88;;;-0.94;100.00
12146;BME280;6136;47.032;15.398;2022-12-19T13:24:49;99199.81;;;-1.00;100.00
12146;BME280;6136;47.032;15.398;2022-12-19T13:27:34;99205.03;;;-1.00;100.00
12146;BME280;6136;47.032;15.398;2022-12-19T13:30:18;99214.59;;;-0.99;100.00
12146;BME280;6136;47.032;15.398;2022-12-19T13:33:13;99211.19;;;-0.91;100.00